createdAt,value
2019-03-23T00:53:14.681Z,66.45
2019-03-23T00:55:45.362Z,66.68
2019-03-23T01:08:43.868Z,66.59
2019-03-23T02:01:49.568Z,67.39
2019-03-23T02:04:20.321Z,67.50
2019-03-23T02:30:03.471Z,66.89
2019-03-23T02:32:53.056Z,66.32
2019-03-23T02:35:45.620Z,66.88
2019-03-23T02:38:35.023Z,66.34
2019-03-23T03:15:35.411Z,67.22
2019-03-23T03:25:08.488Z,67.87
2019-03-23T03:27:39.162Z,67.49
2019-03-23T03:30:49.217Z,67.29
2019-03-23T03:36:22.139Z,68.00
2019-03-23T03:38:52.842Z,67.70
2019-03-23T05:34:27.406Z,67.22
2019-03-23T07:23:27.555Z,65.26
2019-03-23T07:34:26.284Z,64.41
2019-03-23T07:36:56.991Z,64.82
2019-03-23T09:08:43.301Z,59.08
2019-03-23T09:27:29.707Z,57.96
2019-03-23T09:30:01.852Z,57.49
2019-03-23T09:44:49.819Z,56.42
2019-03-23T09:47:38.041Z,55.63
2019-03-23T09:50:22.339Z,55.23
2019-03-23T09:53:11.727Z,55.42
2019-03-23T09:59:18.238Z,54.52
2019-03-23T10:07:27.951Z,53.47
2019-03-23T10:09:59.136Z,53.42
2019-03-23T10:15:22.290Z,52.94
2019-03-23T10:24:02.051Z,52.47
2019-03-23T10:33:02.119Z,51.40
2019-03-23T10:38:16.815Z,50.86
2019-03-23T10:43:48.752Z,51.11
2019-03-23T10:46:19.476Z,50.85
2019-03-23T10:49:12.400Z,50.58
2019-03-23T10:55:00.980Z,50.46
2019-03-23T11:00:35.342Z,49.32
2019-03-23T11:03:06.034Z,49.39
2019-03-23T11:06:02.049Z,48.96
2019-03-23T11:08:32.787Z,49.15
2019-03-23T11:11:03.771Z,48.36
2019-03-23T11:30:27.216Z,46.47
2019-03-23T11:36:55.739Z,46.05
2019-03-23T11:39:27.409Z,46.08
2019-03-23T11:57:26.477Z,43.96
2019-03-23T11:59:57.167Z,44.20
2019-03-23T12:05:18.765Z,44.62
2019-03-23T12:22:46.586Z,42.12
2019-03-23T12:31:12.739Z,44.32
2019-03-23T12:33:43.435Z,43.29
2019-03-23T12:36:14.122Z,42.84
2019-03-23T12:39:04.524Z,42.14
2019-03-23T12:41:53.979Z,41.81
2019-03-23T12:44:24.670Z,39.97
2019-03-23T12:46:55.392Z,42.10
2019-03-23T12:52:20.337Z,40.51
2019-03-23T12:54:52.282Z,40.95
2019-03-23T13:13:58.098Z,34.67
2019-03-23T13:42:22.003Z,32.70
2019-03-23T13:44:52.660Z,32.37
2019-03-23T13:47:23.316Z,32.43
2019-03-23T13:49:53.955Z,32.58
2019-03-23T13:52:24.624Z,32.51
2019-03-23T13:54:55.266Z,32.95
2019-03-23T13:57:25.916Z,32.94
2019-03-23T13:59:56.545Z,32.95
2019-03-23T14:02:27.285Z,33.68
2019-03-23T14:04:57.913Z,33.15
2019-03-23T14:07:28.555Z,33.46
2019-03-23T14:09:59.191Z,33.57
2019-03-23T14:12:29.851Z,33.79
2019-03-23T14:15:00.488Z,33.79
2019-03-23T14:17:31.210Z,33.94
2019-03-23T14:20:01.865Z,34.44
2019-03-23T14:29:25.606Z,33.85
2019-03-23T14:47:46.220Z,34.82
2019-03-23T14:50:16.867Z,34.94
2019-03-23T14:52:47.533Z,35.43
2019-03-23T14:55:18.184Z,36.48
2019-03-23T14:57:48.835Z,37.47
2019-03-23T15:00:44.573Z,36.62
2019-03-23T15:06:08.822Z,35.16
2019-03-23T15:08:39.463Z,36.68
2019-03-23T15:11:10.101Z,36.67
2019-03-23T15:13:52.071Z,36.49
2019-03-23T15:16:38.331Z,36.83
2019-03-23T15:26:01.369Z,37.80
2019-03-23T15:28:32.047Z,37.58
2019-03-23T15:31:02.712Z,37.94
2019-03-23T15:33:33.430Z,37.46
2019-03-23T15:36:04.057Z,37.91
2019-03-23T15:38:34.743Z,38.31
2019-03-23T15:41:05.435Z,38.76
2019-03-23T15:43:36.114Z,38.70
2019-03-23T15:46:06.757Z,38.71
2019-03-23T15:48:37.412Z,38.39
2019-03-23T15:51:08.077Z,38.91
2019-03-23T15:53:49.789Z,38.93
2019-03-23T15:56:20.450Z,39.36
2019-03-23T16:01:50.029Z,39.39
2019-03-23T16:04:20.650Z,39.66
2019-03-23T16:06:51.313Z,39.76
2019-03-23T16:09:21.959Z,40.16
2019-03-23T16:11:52.615Z,39.99
2019-03-23T16:14:23.243Z,40.48
2019-03-23T16:16:53.898Z,40.98
2019-03-23T16:19:24.514Z,40.86
2019-03-23T16:24:41.206Z,41.58
2019-03-23T16:27:11.868Z,41.88
2019-03-23T16:29:42.523Z,42.39
2019-03-23T16:32:13.213Z,42.79
2019-03-23T16:34:43.864Z,43.77
2019-03-23T16:37:14.516Z,43.63
2019-03-23T16:39:45.293Z,44.52
2019-03-23T16:42:15.968Z,44.81
2019-03-23T16:44:46.635Z,45.79
2019-03-23T16:47:17.324Z,46.20
2019-03-23T16:49:48.121Z,45.97
2019-03-23T16:52:18.879Z,45.58
2019-03-23T16:54:49.531Z,46.78
2019-03-23T16:57:20.186Z,46.98
2019-03-23T16:59:50.913Z,47.33
2019-03-23T17:02:21.767Z,47.97
2019-03-23T17:04:52.389Z,47.60
2019-03-23T17:07:23.325Z,47.65
2019-03-23T17:09:53.972Z,48.34
2019-03-23T17:12:24.599Z,47.48
2019-03-23T17:14:57.358Z,48.01
2019-03-23T17:17:28.156Z,48.91
2019-03-23T17:19:58.798Z,48.59
2019-03-23T17:22:29.455Z,49.83
2019-03-23T17:25:00.121Z,49.50
2019-03-23T17:27:30.826Z,49.78
2019-03-23T17:30:01.480Z,50.02
2019-03-23T17:32:33.743Z,50.19
2019-03-23T17:35:04.468Z,50.72
2019-03-23T17:37:35.168Z,49.61
2019-03-23T17:40:05.925Z,51.56
2019-03-23T17:42:36.684Z,50.84
2019-03-23T17:48:25.637Z,52.07
2019-03-23T17:50:56.343Z,52.00
2019-03-23T17:53:27.003Z,52.11
2019-03-23T17:55:59.257Z,52.83
2019-03-23T17:58:29.911Z,52.24
2019-03-23T18:04:09.876Z,52.96
2019-03-23T18:06:40.525Z,53.27
2019-03-23T18:11:53.921Z,53.94
2019-03-23T18:14:44.809Z,54.05
2019-03-23T18:17:15.865Z,53.36
2019-03-23T18:19:46.613Z,53.36
2019-03-23T18:22:17.402Z,54.40
2019-03-23T18:24:48.075Z,55.21
2019-03-23T18:27:18.802Z,54.64
2019-03-23T18:29:49.450Z,54.10
2019-03-23T18:32:20.118Z,54.96
2019-03-23T18:44:52.317Z,55.92
2019-03-23T18:47:22.964Z,54.74
2019-03-23T18:53:00.812Z,56.62
2019-03-23T18:55:51.678Z,56.53
2019-03-23T19:01:27.633Z,57.13
2019-03-23T19:04:02.283Z,56.24
2019-03-23T19:06:51.687Z,57.82
2019-03-23T19:14:59.344Z,57.87
2019-03-23T19:20:52.547Z,57.89
2019-03-23T19:23:48.175Z,57.53
2019-03-23T19:26:55.870Z,58.00
2019-03-23T19:32:51.991Z,58.90
2019-03-23T19:35:22.934Z,58.00
2019-03-23T19:38:12.379Z,58.43
2019-03-23T19:41:02.871Z,59.04
2019-03-23T19:47:11.530Z,58.42
2019-03-23T19:58:24.079Z,59.48
2019-03-23T20:00:54.775Z,59.52
2019-03-23T20:09:02.240Z,59.50
2019-03-23T20:11:53.241Z,59.80
2019-03-23T20:15:06.865Z,60.17
2019-03-23T20:17:56.626Z,60.18
2019-03-23T20:20:27.414Z,60.25
2019-03-23T20:28:40.834Z,60.06
2019-03-23T20:31:11.581Z,60.06
2019-03-23T20:36:44.267Z,59.48
2019-03-23T20:42:12.626Z,60.73
2019-03-23T20:45:02.546Z,60.59
2019-03-23T20:47:53.434Z,60.56
2019-03-23T20:50:24.426Z,60.61
2019-03-23T20:53:15.538Z,60.31
2019-03-23T20:55:46.237Z,60.89
2019-03-23T20:58:17.431Z,60.71
2019-03-23T21:00:48.239Z,60.86
2019-03-23T21:12:06.386Z,61.10
2019-03-23T21:14:38.659Z,60.46
2019-03-23T21:17:09.394Z,60.73
2019-03-23T21:19:40.046Z,61.41
2019-03-23T21:22:10.701Z,60.92
2019-03-23T21:24:41.489Z,61.01
2019-03-23T21:27:12.212Z,61.21
2019-03-23T21:29:42.855Z,60.93
2019-03-23T21:32:13.605Z,61.14
2019-03-23T21:34:44.281Z,60.76
2019-03-23T21:37:26.504Z,61.03
2019-03-23T21:40:35.070Z,61.56
2019-03-23T21:43:05.647Z,61.34
2019-03-23T21:45:36.313Z,61.79
2019-03-23T21:48:06.969Z,61.51
2019-03-23T21:50:47.106Z,62.24
2019-03-23T21:53:09.999Z,61.83
2019-03-23T21:55:40.668Z,61.45
2019-03-23T21:58:11.335Z,61.37
2019-03-23T22:00:41.983Z,61.06
2019-03-23T22:03:12.622Z,61.43
2019-03-23T22:05:43.277Z,61.45
2019-03-23T22:08:13.955Z,61.45
2019-03-23T22:10:44.593Z,61.30
2019-03-23T22:13:15.218Z,60.84
2019-03-23T22:15:45.886Z,61.27
2019-03-23T22:18:16.552Z,60.94
2019-03-23T22:20:47.307Z,60.46
2019-03-23T22:29:56.932Z,61.08
2019-03-23T22:35:31.382Z,61.22
2019-03-23T22:38:02.022Z,61.02
2019-03-23T22:40:32.664Z,60.26
2019-03-23T22:45:46.129Z,61.63
2019-03-23T22:48:16.991Z,60.96
2019-03-23T22:50:47.839Z,61.31
2019-03-23T22:56:34.717Z,61.35
2019-03-23T23:08:28.778Z,61.88
2019-03-23T23:13:52.703Z,61.83
2019-03-23T23:19:36.026Z,62.04
2019-03-23T23:22:06.681Z,61.86
2019-03-23T23:24:37.390Z,62.02
2019-03-23T23:27:08.217Z,61.98
2019-03-23T23:29:38.852Z,62.01
2019-03-23T23:32:09.531Z,62.32
2019-03-23T23:34:40.190Z,61.73
2019-03-23T23:37:10.877Z,61.79
2019-03-23T23:39:41.531Z,62.08
2019-03-23T23:42:12.250Z,61.47
2019-03-23T23:47:25.212Z,61.75
2019-03-23T23:49:55.919Z,61.51
2019-03-23T23:52:26.562Z,61.61
2019-03-23T23:54:57.235Z,61.71
